Struthers, Ohio
Current Conditions -  °F | °C
As of 4:51 PM on Sunday 23 Nov 2014 (Local Time) from KYNG Reporting Station
Overcast Overcast  
Wind Chill: 56°   Ceiling: 18000
Heat Index: 56°   Visibility: 10mi
Dew Point: 44°   Wind: 13mph
Humidity: 64%   Direction: 120°ESE
Pressure: 29.79"   Gusts: NA
Location:  41.05°N, 80.59°W
Report Text: KYNG 232151Z 12011KT 10SM FEW045 SCT130 OVC180 13/07 A2979 RMK AO2 SLP089 T01330067
Loading
Personal Weather Stations






























Interactive Weather Map New forecast layout! Learn more

10-Day Weather Forecast

Advertisements
Track Severe Weather on mobile